PWSweather.com
Personal Weather Stations
Station Observations
APRSFL1
Magnolia Valley, New Port Richey, FL 34653

Magnolia ValleyNew Port Richey, FL 34653

Lat: 28.26, Lon: -82.688

Elevation: 19

Station Type: Davis Vantage Pro 2 Plus with 70ft high Webcam

http://www.aprsfl.net/weather

Latest ConditionsUpdated 9:00:08 PM EST Friday, Nov 28, 2014
Currently Today's Max Today's Min Today's Average
Temperature 44.9°F7.2°C 58.3°F14.6°C 39.8°F4.3°C 48.6°F9.2°C
Dew Point 41.0°F5.0°C 44.3°F6.8°C 33.5°F0.8°C 37.6°F3.1°C
Winds Calm Calm 12.0 mph NE19.3 kmh NE - 3.4 mph 5.5 kmh
Wind Gusts 1.0 mph1.6 kmh 13.0 mph20.9 kmh - -
Humidity 86% 92% 40% 67%
Pressure 30.34 in1027.4 mb 30.40 in1029.5 mb 30.29 in1025.7 mb -
Hour Temp Dew Point Humidity Winds Wind Gusts Pressure Precip Precip Rate Daily Precip Total
09:00 PM 44.9°F7.2°C 41.0°F5.0°C 86% Calm Calm 1.0 mph1.6 kmh 30.34 in1027.4 mb 0.00 in0.0 mm 0.00 in/hr0.0 mm/hr 0.00 in0.0 mm
08:55 PM 45.2°F7.3°C 41.3°F5.2°C 86% 2.0 mph N3.2 kmh N 2.0 mph3.2 kmh 30.34 in1027.4 mb 0.00 in0.0 mm 0.00 in/hr0.0 mm/hr 0.00 in0.0 mm
08:50 PM 45.4°F7.4°C 41.5°F5.3°C 86% Calm Calm -- 30.34 in1027.4 mb 0.00 in0.0 mm 0.00 in/hr0.0 mm/hr 0.00 in0.0 mm
08:45 PM 45.4°F7.4°C 41.5°F5.3°C 86% 1.0 mph NNE1.6 kmh NNE 1.0 mph1.6 kmh 30.34 in1027.4 mb 0.00 in0.0 mm 0.00 in/hr0.0 mm/hr 0.00 in0.0 mm
08:40 PM 45.4°F7.4°C 41.5°F5.3°C 86% 1.0 mph NNE1.6 kmh NNE 1.0 mph1.6 kmh 30.34 in1027.4 mb 0.00 in0.0 mm 0.00 in/hr0.0 mm/hr 0.00 in0.0 mm
08:35 PM 45.3°F7.4°C 42.3°F5.7°C 89% 1.0 mph NNE1.6 kmh NNE 2.0 mph3.2 kmh 30.34 in1027.4 mb 0.00 in0.0 mm 0.00 in/hr0.0 mm/hr 0.00 in0.0 mm
08:30 PM 45.3°F7.4°C 42.6°F5.9°C 90% 2.0 mph NNE3.2 kmh NNE 2.0 mph3.2 kmh 30.34 in1027.4 mb 0.00 in0.0 mm 0.00 in/hr0.0 mm/hr 0.00 in0.0 mm
08:25 PM 45.2°F7.3°C 42.7°F5.9°C 91% 2.0 mph N3.2 kmh N 3.0 mph4.8 kmh 30.34 in1027.4 mb 0.00 in0.0 mm 0.00 in/hr0.0 mm/hr 0.00 in0.0 mm
08:20 PM 45.2°F7.3°C 42.7°F5.9°C 91% 2.0 mph N3.2 kmh N 2.0 mph3.2 kmh 30.34 in1027.4 mb 0.00 in0.0 mm 0.00 in/hr0.0 mm/hr 0.00 in0.0 mm
08:15 PM 45.4°F7.4°C 42.9°F6.1°C 91% 1.0 mph N1.6 kmh N 2.0 mph3.2 kmh 30.34 in1027.4 mb 0.00 in0.0 mm 0.00 in/hr0.0 mm/hr 0.00 in0.0 mm
08:10 PM 45.4°F7.4°C 42.9°F6.1°C 91% 1.0 mph N1.6 kmh N 3.0 mph4.8 kmh 30.34 in1027.4 mb 0.00 in0.0 mm 0.00 in/hr0.0 mm/hr 0.00 in0.0 mm
08:05 PM 45.4°F7.4°C 42.9°F6.1°C 91% Calm Calm -- 30.34 in1027.4 mb 0.00 in0.0 mm 0.00 in/hr0.0 mm/hr 0.00 in0.0 mm
08:00 PM 45.6°F7.6°C 43.1°F6.2°C 91% Calm Calm -- 30.34 in1027.4 mb 0.00 in0.0 mm 0.00 in/hr0.0 mm/hr 0.00 in0.0 mm
07:55 PM 45.7°F7.6°C 43.2°F6.2°C 91% Calm Calm -- 30.33 in1027.1 mb 0.00 in0.0 mm 0.00 in/hr0.0 mm/hr 0.00 in0.0 mm
07:50 PM 45.7°F7.6°C 43.2°F6.2°C 91% Calm Calm -- 30.33 in1027.1 mb 0.00 in0.0 mm 0.00 in/hr0.0 mm/hr 0.00 in0.0 mm
07:45 PM 45.8°F7.7°C 43.3°F6.3°C 91% Calm Calm -- 30.33 in1027.1 mb 0.00 in0.0 mm 0.00 in/hr0.0 mm/hr 0.00 in0.0 mm
07:40 PM 45.7°F7.6°C 43.2°F6.2°C 91% Calm Calm -- 30.33 in1027.1 mb 0.00 in0.0 mm 0.00 in/hr0.0 mm/hr 0.00 in0.0 mm
07:35 PM 45.8°F7.7°C 43.3°F6.3°C 91% Calm Calm -- 30.33 in1027.1 mb 0.00 in0.0 mm 0.00 in/hr0.0 mm/hr 0.00 in0.0 mm
07:30 PM 46.1°F7.8°C 43.9°F6.6°C 92% Calm Calm -- 30.33 in1027.1 mb 0.00 in0.0 mm 0.00 in/hr0.0 mm/hr 0.00 in0.0 mm
07:25 PM 46.1°F7.8°C 43.6°F6.4°C 91% Calm Calm -- 30.33 in1027.1 mb 0.00 in0.0 mm 0.00 in/hr0.0 mm/hr 0.00 in0.0 mm
07:20 PM 46.1°F7.8°C 43.6°F6.4°C 91% Calm Calm -- 30.33 in1027.1 mb 0.00 in0.0 mm 0.00 in/hr0.0 mm/hr 0.00 in0.0 mm
07:15 PM 46.3°F7.9°C 43.8°F6.6°C 91% Calm Calm -- 30.33 in1027.1 mb 0.00 in0.0 mm 0.00 in/hr0.0 mm/hr 0.00 in0.0 mm
07:10 PM 46.6°F8.1°C 43.8°F6.6°C 90% Calm Calm -- 30.32 in1026.8 mb 0.00 in0.0 mm 0.00 in/hr0.0 mm/hr 0.00 in0.0 mm
07:05 PM 46.9°F8.3°C 44.1°F6.7°C 90% Calm Calm -- 30.32 in1026.8 mb 0.00 in0.0 mm 0.00 in/hr0.0 mm/hr 0.00 in0.0 mm
07:00 PM 46.9°F8.3°C 44.1°F6.7°C 90% Calm Calm -- 30.32 in1026.8 mb 0.00 in0.0 mm 0.00 in/hr0.0 mm/hr 0.00 in0.0 mm
06:55 PM 46.9°F8.3°C 43.8°F6.6°C 89% Calm Calm -- 30.31 in1026.4 mb 0.00 in0.0 mm 0.00 in/hr0.0 mm/hr 0.00 in0.0 mm
06:50 PM 47.0°F8.3°C 43.6°F6.4°C 88% Calm Calm -- 30.31 in1026.4 mb 0.00 in0.0 mm 0.00 in/hr0.0 mm/hr 0.00 in0.0 mm
06:45 PM 47.3°F8.5°C 43.6°F6.4°C 87% Calm Calm -- 30.31 in1026.4 mb 0.00 in0.0 mm 0.00 in/hr0.0 mm/hr 0.00 in0.0 mm
06:40 PM 47.4°F8.6°C 43.7°F6.5°C 87% Calm Calm -- 30.31 in1026.4 mb 0.00 in0.0 mm 0.00 in/hr0.0 mm/hr 0.00 in0.0 mm
06:35 PM 47.5°F8.6°C 43.8°F6.6°C 87% Calm Calm -- 30.31 in1026.4 mb 0.00 in0.0 mm 0.00 in/hr0.0 mm/hr 0.00 in0.0 mm
06:30 PM 47.7°F8.7°C 43.7°F6.5°C 86% Calm Calm -- 30.31 in1026.4 mb 0.00 in0.0 mm 0.00 in/hr0.0 mm/hr 0.00 in0.0 mm
06:25 PM 47.9°F8.8°C 43.9°F6.6°C 86% Calm Calm -- 30.31 in1026.4 mb 0.00 in0.0 mm 0.00 in/hr0.0 mm/hr 0.00 in0.0 mm
06:20 PM 48.2°F9.0°C 43.9°F6.6°C 85% Calm Calm -- 30.31 in1026.4 mb 0.00 in0.0 mm 0.00 in/hr0.0 mm/hr 0.00 in0.0 mm
06:15 PM 48.5°F9.2°C 43.9°F6.6°C 84% Calm Calm -- 30.30 in1026.1 mb 0.00 in0.0 mm 0.00 in/hr0.0 mm/hr 0.00 in0.0 mm
05:55 PM 50.1°F10.1°C 44.2°F6.8°C 80% Calm Calm -- 30.30 in1026.1 mb 0.00 in0.0 mm 0.00 in/hr0.0 mm/hr 0.00 in0.0 mm
05:50 PM 50.6°F10.3°C 44.0°F6.7°C 78% Calm Calm -- 30.30 in1026.1 mb 0.00 in0.0 mm 0.00 in/hr0.0 mm/hr 0.00 in0.0 mm
05:45 PM 51.2°F10.7°C 44.3°F6.8°C 77% Calm Calm -- 30.30 in1026.1 mb 0.00 in0.0 mm 0.00 in/hr0.0 mm/hr 0.00 in0.0 mm
05:40 PM 52.0°F11.1°C 44.0°F6.7°C 74% Calm Calm -- 30.30 in1026.1 mb 0.00 in0.0 mm 0.00 in/hr0.0 mm/hr 0.00 in0.0 mm
05:35 PM 52.8°F11.6°C 43.7°F6.5°C 71% Calm Calm -- 30.30 in1026.1 mb 0.00 in0.0 mm 0.00 in/hr0.0 mm/hr 0.00 in0.0 mm
05:30 PM 53.7°F12.1°C 43.4°F6.3°C 68% Calm Calm -- 30.30 in1026.1 mb 0.00 in0.0 mm 0.00 in/hr0.0 mm/hr 0.00 in0.0 mm
05:25 PM 54.2°F12.3°C 43.5°F6.4°C 67% Calm Calm 1.0 mph1.6 kmh 30.30 in1026.1 mb 0.00 in0.0 mm 0.00 in/hr0.0 mm/hr 0.00 in0.0 mm
05:20 PM 54.4°F12.4°C 42.9°F6.1°C 65% 2.0 mph NNW3.2 kmh NNW 4.0 mph6.4 kmh 30.30 in1026.1 mb 0.00 in0.0 mm 0.00 in/hr0.0 mm/hr 0.00 in0.0 mm
05:15 PM 54.6°F12.6°C 43.1°F6.2°C 65% 2.0 mph NW3.2 kmh NW 3.0 mph4.8 kmh 30.30 in1026.1 mb 0.00 in0.0 mm 0.00 in/hr0.0 mm/hr 0.00 in0.0 mm
05:10 PM 54.7°F12.6°C 42.8°F6.0°C 64% 3.0 mph NW4.8 kmh NW 4.0 mph6.4 kmh 30.30 in1026.1 mb 0.00 in0.0 mm 0.00 in/hr0.0 mm/hr 0.00 in0.0 mm
05:05 PM 54.9°F12.7°C 43.0°F6.1°C 64% 4.0 mph N6.4 kmh N 5.0 mph8.0 kmh 30.30 in1026.1 mb 0.00 in0.0 mm 0.00 in/hr0.0 mm/hr 0.00 in0.0 mm
05:00 PM 55.1°F12.8°C 42.8°F6.0°C 63% 4.0 mph N6.4 kmh N 8.0 mph12.9 kmh 30.30 in1026.1 mb 0.00 in0.0 mm 0.00 in/hr0.0 mm/hr 0.00 in0.0 mm
04:55 PM 55.3°F12.9°C 42.5°F5.8°C 62% 3.0 mph NNW4.8 kmh NNW 5.0 mph8.0 kmh 30.30 in1026.1 mb 0.00 in0.0 mm 0.00 in/hr0.0 mm/hr 0.00 in0.0 mm
04:50 PM 55.4°F13.0°C 42.6°F5.9°C 62% 5.0 mph NNW8.0 kmh NNW 5.0 mph8.0 kmh 30.30 in1026.1 mb 0.00 in0.0 mm 0.00 in/hr0.0 mm/hr 0.00 in0.0 mm
04:45 PM 55.5°F13.1°C 42.3°F5.7°C 61% 5.0 mph N8.0 kmh N 8.0 mph12.9 kmh 30.30 in1026.1 mb 0.00 in0.0 mm 0.00 in/hr0.0 mm/hr 0.00 in0.0 mm
04:40 PM 55.6°F13.1°C 43.2°F6.2°C 63% 4.0 mph NW6.4 kmh NW 4.0 mph6.4 kmh 30.30 in1026.1 mb 0.00 in0.0 mm 0.00 in/hr0.0 mm/hr 0.00 in0.0 mm
04:35 PM 55.5°F13.1°C 42.7°F5.9°C 62% 2.0 mph N3.2 kmh N 3.0 mph4.8 kmh 30.30 in1026.1 mb 0.00 in0.0 mm 0.00 in/hr0.0 mm/hr 0.00 in0.0 mm
04:30 PM 55.5°F13.1°C 43.1°F6.2°C 63% 3.0 mph N4.8 kmh N 8.0 mph12.9 kmh 30.30 in1026.1 mb 0.00 in0.0 mm 0.00 in/hr0.0 mm/hr 0.00 in0.0 mm
04:25 PM 55.6°F13.1°C 42.4°F5.8°C 61% 3.0 mph W4.8 kmh W 4.0 mph6.4 kmh 30.30 in1026.1 mb 0.00 in0.0 mm 0.00 in/hr0.0 mm/hr 0.00 in0.0 mm
04:20 PM 55.7°F13.2°C 42.5°F5.8°C 61% 3.0 mph NW4.8 kmh NW 5.0 mph8.0 kmh 30.30 in1026.1 mb 0.00 in0.0 mm 0.00 in/hr0.0 mm/hr 0.00 in0.0 mm
04:15 PM 55.8°F13.2°C 42.1°F5.6°C 60% 6.0 mph NNW9.7 kmh NNW 7.0 mph11.3 kmh 30.30 in1026.1 mb 0.00 in0.0 mm 0.00 in/hr0.0 mm/hr 0.00 in0.0 mm
04:10 PM 55.8°F13.2°C 42.6°F5.9°C 61% 6.0 mph NNW9.7 kmh NNW 10.0 mph16.1 kmh 30.30 in1026.1 mb 0.00 in0.0 mm 0.00 in/hr0.0 mm/hr 0.00 in0.0 mm
04:05 PM 55.9°F13.3°C 42.2°F5.7°C 60% 4.0 mph NW6.4 kmh NW 8.0 mph12.9 kmh 30.29 in1025.7 mb 0.00 in0.0 mm 0.00 in/hr0.0 mm/hr 0.00 in0.0 mm
04:00 PM 56.0°F13.3°C 42.3°F5.7°C 60% 8.0 mph WNW12.9 kmh WNW 10.0 mph16.1 kmh 30.29 in1025.7 mb 0.00 in0.0 mm 0.00 in/hr0.0 mm/hr 0.00 in0.0 mm
03:55 PM 56.1°F13.4°C 42.0°F5.6°C 59% 4.0 mph NW6.4 kmh NW 6.0 mph9.7 kmh 30.29 in1025.7 mb 0.00 in0.0 mm 0.00 in/hr0.0 mm/hr 0.00 in0.0 mm
03:50 PM 56.3°F13.5°C 42.2°F5.7°C 59% 4.0 mph NW6.4 kmh NW 8.0 mph12.9 kmh 30.29 in1025.7 mb 0.00 in0.0 mm 0.00 in/hr0.0 mm/hr 0.00 in0.0 mm
03:45 PM 56.3°F13.5°C 42.2°F5.7°C 59% 5.0 mph NW8.0 kmh NW 8.0 mph12.9 kmh 30.29 in1025.7 mb 0.00 in0.0 mm 0.00 in/hr0.0 mm/hr 0.00 in0.0 mm
03:40 PM 56.4°F13.6°C 41.8°F5.4°C 58% 4.0 mph NNW6.4 kmh NNW 6.0 mph9.7 kmh 30.29 in1025.7 mb 0.00 in0.0 mm 0.00 in/hr0.0 mm/hr 0.00 in0.0 mm
03:35 PM 56.5°F13.6°C 42.4°F5.8°C 59% 8.0 mph NNW12.9 kmh NNW 9.0 mph14.5 kmh 30.29 in1025.7 mb 0.00 in0.0 mm 0.00 in/hr0.0 mm/hr 0.00 in0.0 mm
03:30 PM 56.3°F13.5°C 41.7°F5.4°C 58% 6.0 mph NNW9.7 kmh NNW 8.0 mph12.9 kmh 30.29 in1025.7 mb 0.00 in0.0 mm 0.00 in/hr0.0 mm/hr 0.00 in0.0 mm
03:25 PM 56.3°F13.5°C 41.7°F5.4°C 58% 4.0 mph NNW6.4 kmh NNW 6.0 mph9.7 kmh 30.29 in1025.7 mb 0.00 in0.0 mm 0.00 in/hr0.0 mm/hr 0.00 in0.0 mm
03:20 PM 56.6°F13.7°C 41.6°F5.3°C 57% 7.0 mph WNW11.3 kmh WNW 9.0 mph14.5 kmh 30.29 in1025.7 mb 0.00 in0.0 mm 0.00 in/hr0.0 mm/hr 0.00 in0.0 mm
03:15 PM 56.8°F13.8°C 41.3°F5.2°C 56% 4.0 mph N6.4 kmh N 11.0 mph17.7 kmh 30.29 in1025.7 mb 0.00 in0.0 mm 0.00 in/hr0.0 mm/hr 0.00 in0.0 mm
03:10 PM 56.6°F13.7°C 41.6°F5.3°C 57% 4.0 mph NNW6.4 kmh NNW 4.0 mph6.4 kmh 30.29 in1025.7 mb 0.00 in0.0 mm 0.00 in/hr0.0 mm/hr 0.00 in0.0 mm
03:05 PM 56.7°F13.7°C 41.2°F5.1°C 56% 4.0 mph NNW6.4 kmh NNW 6.0 mph9.7 kmh 30.29 in1025.7 mb 0.00 in0.0 mm 0.00 in/hr0.0 mm/hr 0.00 in0.0 mm
03:00 PM 57.0°F13.9°C 40.5°F4.7°C 54% 3.0 mph NW4.8 kmh NW 3.0 mph4.8 kmh 30.29 in1025.7 mb 0.00 in0.0 mm 0.00 in/hr0.0 mm/hr 0.00 in0.0 mm
02:55 PM 57.2°F14.0°C 40.7°F4.8°C 54% 5.0 mph N8.0 kmh N 5.0 mph8.0 kmh 30.29 in1025.7 mb 0.00 in0.0 mm 0.00 in/hr0.0 mm/hr 0.00 in0.0 mm
02:50 PM 57.1°F13.9°C 40.6°F4.8°C 54% 7.0 mph NW11.3 kmh NW 7.0 mph11.3 kmh 30.29 in1025.7 mb 0.00 in0.0 mm 0.00 in/hr0.0 mm/hr 0.00 in0.0 mm
02:45 PM 57.0°F13.9°C 40.5°F4.7°C 54% 3.0 mph N4.8 kmh N 3.0 mph4.8 kmh 30.29 in1025.7 mb 0.00 in0.0 mm 0.00 in/hr0.0 mm/hr 0.00 in0.0 mm
02:40 PM 57.4°F14.1°C 40.9°F4.9°C 54% 4.0 mph N6.4 kmh N 4.0 mph6.4 kmh 30.29 in1025.7 mb 0.00 in0.0 mm 0.00 in/hr0.0 mm/hr 0.00 in0.0 mm
02:35 PM 57.7°F14.3°C 39.2°F4.0°C 50% 8.0 mph NNE12.9 kmh NNE 9.0 mph14.5 kmh 30.29 in1025.7 mb 0.00 in0.0 mm 0.00 in/hr0.0 mm/hr 0.00 in0.0 mm
02:30 PM 58.1°F14.5°C 40.1°F4.5°C 51% 4.0 mph NNW6.4 kmh NNW 5.0 mph8.0 kmh 30.30 in1026.1 mb 0.00 in0.0 mm 0.00 in/hr0.0 mm/hr 0.00 in0.0 mm
02:25 PM 58.3°F14.6°C 35.3°F1.8°C 42% 6.0 mph NE9.7 kmh NE 6.0 mph9.7 kmh 30.30 in1026.1 mb 0.00 in0.0 mm 0.00 in/hr0.0 mm/hr 0.00 in0.0 mm
02:20 PM 58.2°F14.6°C 35.8°F2.1°C 43% 4.0 mph NW6.4 kmh NW 4.0 mph6.4 kmh 30.30 in1026.1 mb 0.00 in0.0 mm 0.00 in/hr0.0 mm/hr 0.00 in0.0 mm
02:15 PM 58.1°F14.5°C 35.7°F2.1°C 43% 1.0 mph NE1.6 kmh NE 2.0 mph3.2 kmh 30.30 in1026.1 mb 0.00 in0.0 mm 0.00 in/hr0.0 mm/hr 0.00 in0.0 mm
02:10 PM 57.7°F14.3°C 33.6°F0.9°C 40% 2.0 mph NW3.2 kmh NW 4.0 mph6.4 kmh 30.30 in1026.1 mb 0.00 in0.0 mm 0.00 in/hr0.0 mm/hr 0.00 in0.0 mm
02:05 PM 57.5°F14.2°C 35.8°F2.1°C 44% 2.0 mph ESE3.2 kmh ESE 3.0 mph4.8 kmh 30.30 in1026.1 mb 0.00 in0.0 mm 0.00 in/hr0.0 mm/hr 0.00 in0.0 mm
02:00 PM 57.2°F14.0°C 35.5°F1.9°C 44% 2.0 mph ENE3.2 kmh ENE 5.0 mph8.0 kmh 30.30 in1026.1 mb 0.00 in0.0 mm 0.00 in/hr0.0 mm/hr 0.00 in0.0 mm
01:55 PM 57.3°F14.1°C 35.6°F2.0°C 44% 4.0 mph E6.4 kmh E 9.0 mph14.5 kmh 30.31 in1026.4 mb 0.00 in0.0 mm 0.00 in/hr0.0 mm/hr 0.00 in0.0 mm
01:50 PM 57.2°F14.0°C 36.6°F2.6°C 46% 3.0 mph NE4.8 kmh NE 5.0 mph8.0 kmh 30.31 in1026.4 mb 0.00 in0.0 mm 0.00 in/hr0.0 mm/hr 0.00 in0.0 mm
01:45 PM 57.2°F14.0°C 35.5°F1.9°C 44% 2.0 mph ENE3.2 kmh ENE 3.0 mph4.8 kmh 30.31 in1026.4 mb 0.00 in0.0 mm 0.00 in/hr0.0 mm/hr 0.00 in0.0 mm
01:40 PM 57.1°F13.9°C 36.5°F2.5°C 46% 3.0 mph NE4.8 kmh NE 6.0 mph9.7 kmh 30.31 in1026.4 mb 0.00 in0.0 mm 0.00 in/hr0.0 mm/hr 0.00 in0.0 mm
01:35 PM 56.6°F13.7°C 35.5°F1.9°C 45% 3.0 mph N4.8 kmh N 4.0 mph6.4 kmh 30.31 in1026.4 mb 0.00 in0.0 mm 0.00 in/hr0.0 mm/hr 0.00 in0.0 mm
01:30 PM 56.3°F13.5°C 35.8°F2.1°C 46% 7.0 mph E11.3 kmh E 7.0 mph11.3 kmh 30.31 in1026.4 mb 0.00 in0.0 mm 0.00 in/hr0.0 mm/hr 0.00 in0.0 mm
01:25 PM 56.6°F13.7°C 35.5°F1.9°C 45% 4.0 mph ENE6.4 kmh ENE 7.0 mph11.3 kmh 30.32 in1026.8 mb 0.00 in0.0 mm 0.00 in/hr0.0 mm/hr 0.00 in0.0 mm
01:20 PM 56.6°F13.7°C 36.1°F2.3°C 46% 1.0 mph E1.6 kmh E 1.0 mph1.6 kmh 30.32 in1026.8 mb 0.00 in0.0 mm 0.00 in/hr0.0 mm/hr 0.00 in0.0 mm
01:15 PM 56.2°F13.4°C 35.7°F2.1°C 46% 3.0 mph NW4.8 kmh NW 4.0 mph6.4 kmh 30.32 in1026.8 mb 0.00 in0.0 mm 0.00 in/hr0.0 mm/hr 0.00 in0.0 mm
01:10 PM 56.2°F13.4°C 36.3°F2.4°C 47% 1.0 mph ENE1.6 kmh ENE 3.0 mph4.8 kmh 30.33 in1027.1 mb 0.00 in0.0 mm 0.00 in/hr0.0 mm/hr 0.00 in0.0 mm
01:05 PM 56.5°F13.6°C 36.0°F2.2°C 46% 5.0 mph NNE8.0 kmh NNE 7.0 mph11.3 kmh 30.33 in1027.1 mb 0.00 in0.0 mm 0.00 in/hr0.0 mm/hr 0.00 in0.0 mm
01:00 PM 56.0°F13.3°C 35.5°F1.9°C 46% 3.0 mph NW4.8 kmh NW 4.0 mph6.4 kmh 30.33 in1027.1 mb 0.00 in0.0 mm 0.00 in/hr0.0 mm/hr 0.00 in0.0 mm
12:55 PM 56.0°F13.3°C 38.2°F3.4°C 51% 2.0 mph ESE3.2 kmh ESE 6.0 mph9.7 kmh 30.33 in1027.1 mb 0.00 in0.0 mm 0.00 in/hr0.0 mm/hr 0.00 in0.0 mm
12:50 PM 55.6°F13.1°C 35.7°F2.1°C 47% 2.0 mph N3.2 kmh N 4.0 mph6.4 kmh 30.34 in1027.4 mb 0.00 in0.0 mm 0.00 in/hr0.0 mm/hr 0.00 in0.0 mm
12:45 PM 55.9°F13.3°C 36.5°F2.5°C 48% 4.0 mph NE6.4 kmh NE 5.0 mph8.0 kmh 30.34 in1027.4 mb 0.00 in0.0 mm 0.00 in/hr0.0 mm/hr 0.00 in0.0 mm
12:40 PM 55.5°F13.1°C 36.7°F2.6°C 49% 2.0 mph NE3.2 kmh NE 2.0 mph3.2 kmh 30.34 in1027.4 mb 0.00 in0.0 mm 0.00 in/hr0.0 mm/hr 0.00 in0.0 mm
12:35 PM 54.8°F12.7°C 36.0°F2.2°C 49% 3.0 mph E4.8 kmh E 8.0 mph12.9 kmh 30.35 in1027.8 mb 0.00 in0.0 mm 0.00 in/hr0.0 mm/hr 0.00 in0.0 mm
12:30 PM 55.0°F12.8°C 36.2°F2.3°C 49% Calm Calm 2.0 mph3.2 kmh 30.35 in1027.8 mb 0.00 in0.0 mm 0.00 in/hr0.0 mm/hr 0.00 in0.0 mm
12:25 PM 54.3°F12.4°C 36.1°F2.3°C 50% Calm Calm 2.0 mph3.2 kmh 30.35 in1027.8 mb 0.00 in0.0 mm 0.00 in/hr0.0 mm/hr 0.00 in0.0 mm
12:20 PM 54.0°F12.2°C 36.3°F2.4°C 51% 2.0 mph NE3.2 kmh NE 4.0 mph6.4 kmh 30.35 in1027.8 mb 0.00 in0.0 mm 0.00 in/hr0.0 mm/hr 0.00 in0.0 mm
12:15 PM 53.7°F12.1°C 36.5°F2.5°C 52% 4.0 mph NNW6.4 kmh NNW 4.0 mph6.4 kmh 30.36 in1028.1 mb 0.00 in0.0 mm 0.00 in/hr0.0 mm/hr 0.00 in0.0 mm
12:10 PM 54.0°F12.2°C 36.3°F2.4°C 51% 2.0 mph E3.2 kmh E 3.0 mph4.8 kmh 30.36 in1028.1 mb 0.00 in0.0 mm 0.00 in/hr0.0 mm/hr 0.00 in0.0 mm
12:05 PM 53.9°F12.2°C 37.2°F2.9°C 53% 2.0 mph ESE3.2 kmh ESE 2.0 mph3.2 kmh 30.36 in1028.1 mb 0.00 in0.0 mm 0.00 in/hr0.0 mm/hr 0.00 in0.0 mm
12:00 PM 53.5°F11.9°C 37.8°F3.2°C 55% Calm Calm 4.0 mph6.4 kmh 30.36 in1028.1 mb 0.00 in0.0 mm 0.00 in/hr0.0 mm/hr 0.00 in0.0 mm
11:55 AM 53.3°F11.8°C 37.1°F2.8°C 54% 3.0 mph NE4.8 kmh NE 5.0 mph8.0 kmh 30.36 in1028.1 mb 0.00 in0.0 mm 0.00 in/hr0.0 mm/hr 0.00 in0.0 mm
11:50 AM 52.6°F11.4°C 36.9°F2.7°C 55% 4.0 mph N6.4 kmh N 4.0 mph6.4 kmh 30.37 in1028.4 mb 0.00 in0.0 mm 0.00 in/hr0.0 mm/hr 0.00 in0.0 mm
11:45 AM 52.6°F11.4°C 37.4°F3.0°C 56% 2.0 mph E3.2 kmh E 3.0 mph4.8 kmh 30.37 in1028.4 mb 0.00 in0.0 mm 0.00 in/hr0.0 mm/hr 0.00 in0.0 mm
11:40 AM 52.2°F11.2°C 36.1°F2.3°C 54% 3.0 mph NNE4.8 kmh NNE 8.0 mph12.9 kmh 30.37 in1028.4 mb 0.00 in0.0 mm 0.00 in/hr0.0 mm/hr 0.00 in0.0 mm
11:35 AM 52.2°F11.2°C 37.0°F2.8°C 56% 4.0 mph N6.4 kmh N 6.0 mph9.7 kmh 30.37 in1028.4 mb 0.00 in0.0 mm 0.00 in/hr0.0 mm/hr 0.00 in0.0 mm
11:30 AM 51.8°F11.0°C 36.6°F2.6°C 56% 1.0 mph NNE1.6 kmh NNE 3.0 mph4.8 kmh 30.37 in1028.4 mb 0.00 in0.0 mm 0.00 in/hr0.0 mm/hr 0.00 in0.0 mm
11:25 AM 51.3°F10.7°C 37.0°F2.8°C 58% 3.0 mph ENE4.8 kmh ENE 3.0 mph4.8 kmh 30.38 in1028.8 mb 0.00 in0.0 mm 0.00 in/hr0.0 mm/hr 0.00 in0.0 mm
11:20 AM 51.4°F10.8°C 36.3°F2.4°C 56% 5.0 mph E8.0 kmh E 6.0 mph9.7 kmh 30.38 in1028.8 mb 0.00 in0.0 mm 0.00 in/hr0.0 mm/hr 0.00 in0.0 mm
11:15 AM 51.2°F10.7°C 36.5°F2.5°C 57% 2.0 mph E3.2 kmh E 5.0 mph8.0 kmh 30.38 in1028.8 mb 0.00 in0.0 mm 0.00 in/hr0.0 mm/hr 0.00 in0.0 mm
11:10 AM 51.0°F10.6°C 36.3°F2.4°C 57% 1.0 mph E1.6 kmh E 4.0 mph6.4 kmh 30.38 in1028.8 mb 0.00 in0.0 mm 0.00 in/hr0.0 mm/hr 0.00 in0.0 mm
11:05 AM 50.6°F10.3°C 36.4°F2.4°C 58% 9.0 mph ENE14.5 kmh ENE 9.0 mph14.5 kmh 30.38 in1028.8 mb 0.00 in0.0 mm 0.00 in/hr0.0 mm/hr 0.00 in0.0 mm
11:00 AM 50.3°F10.2°C 36.5°F2.5°C 59% 4.0 mph NE6.4 kmh NE 4.0 mph6.4 kmh 30.38 in1028.8 mb 0.00 in0.0 mm 0.00 in/hr0.0 mm/hr 0.00 in0.0 mm
10:55 AM 49.8°F9.9°C 35.6°F2.0°C 58% 7.0 mph E11.3 kmh E 11.0 mph17.7 kmh 30.39 in1029.1 mb 0.00 in0.0 mm 0.00 in/hr0.0 mm/hr 0.00 in0.0 mm
10:50 AM 49.7°F9.8°C 35.1°F1.7°C 57% 5.0 mph NNE8.0 kmh NNE 5.0 mph8.0 kmh 30.39 in1029.1 mb 0.00 in0.0 mm 0.00 in/hr0.0 mm/hr 0.00 in0.0 mm
10:45 AM 49.7°F9.8°C 36.0°F2.2°C 59% 5.0 mph ENE8.0 kmh ENE 5.0 mph8.0 kmh 30.39 in1029.1 mb 0.00 in0.0 mm 0.00 in/hr0.0 mm/hr 0.00 in0.0 mm
10:40 AM 49.4°F9.7°C 35.3°F1.8°C 58% 6.0 mph ENE9.7 kmh ENE 6.0 mph9.7 kmh 30.39 in1029.1 mb 0.00 in0.0 mm 0.00 in/hr0.0 mm/hr 0.00 in0.0 mm
10:35 AM 49.0°F9.4°C 36.2°F2.3°C 61% 3.0 mph E4.8 kmh E 6.0 mph9.7 kmh 30.39 in1029.1 mb 0.00 in0.0 mm 0.00 in/hr0.0 mm/hr 0.00 in0.0 mm
10:30 AM 48.4°F9.1°C 35.6°F2.0°C 61% 2.0 mph E3.2 kmh E 6.0 mph9.7 kmh 30.39 in1029.1 mb 0.00 in0.0 mm 0.00 in/hr0.0 mm/hr 0.00 in0.0 mm
10:25 AM 48.0°F8.9°C 35.2°F1.8°C 61% 3.0 mph NE4.8 kmh NE 5.0 mph8.0 kmh 30.40 in1029.5 mb 0.00 in0.0 mm 0.00 in/hr0.0 mm/hr 0.00 in0.0 mm
10:20 AM 47.9°F8.8°C 34.7°F1.5°C 60% 3.0 mph ESE4.8 kmh ESE 4.0 mph6.4 kmh 30.40 in1029.5 mb 0.00 in0.0 mm 0.00 in/hr0.0 mm/hr 0.00 in0.0 mm
10:15 AM 47.9°F8.8°C 35.5°F1.9°C 62% 4.0 mph NNE6.4 kmh NNE 8.0 mph12.9 kmh 30.40 in1029.5 mb 0.00 in0.0 mm 0.00 in/hr0.0 mm/hr 0.00 in0.0 mm
10:10 AM 46.7°F8.2°C 34.8°F1.6°C 63% 6.0 mph E9.7 kmh E 6.0 mph9.7 kmh 30.40 in1029.5 mb 0.00 in0.0 mm 0.00 in/hr0.0 mm/hr 0.00 in0.0 mm
10:05 AM 46.6°F8.1°C 34.7°F1.5°C 63% 8.0 mph ENE12.9 kmh ENE 8.0 mph12.9 kmh 30.40 in1029.5 mb 0.00 in0.0 mm 0.00 in/hr0.0 mm/hr 0.00 in0.0 mm
10:00 AM 46.6°F8.1°C 34.3°F1.3°C 62% 3.0 mph N4.8 kmh N 7.0 mph11.3 kmh 30.40 in1029.5 mb 0.00 in0.0 mm 0.00 in/hr0.0 mm/hr 0.00 in0.0 mm
09:55 AM 46.7°F8.2°C 35.2°F1.8°C 64% 3.0 mph E4.8 kmh E 6.0 mph9.7 kmh 30.40 in1029.5 mb 0.00 in0.0 mm 0.00 in/hr0.0 mm/hr 0.00 in0.0 mm
09:50 AM 45.8°F7.7°C 34.7°F1.5°C 65% Calm Calm 3.0 mph4.8 kmh 30.40 in1029.5 mb 0.00 in0.0 mm 0.00 in/hr0.0 mm/hr 0.00 in0.0 mm
09:45 AM 45.7°F7.6°C 34.2°F1.2°C 64% 7.0 mph NE11.3 kmh NE 9.0 mph14.5 kmh 30.40 in1029.5 mb 0.00 in0.0 mm 0.00 in/hr0.0 mm/hr 0.00 in0.0 mm
09:40 AM 45.6°F7.6°C 34.5°F1.4°C 65% 3.0 mph NE4.8 kmh NE 10.0 mph16.1 kmh 30.40 in1029.5 mb 0.00 in0.0 mm 0.00 in/hr0.0 mm/hr 0.00 in0.0 mm
09:35 AM 45.2°F7.3°C 34.2°F1.2°C 65% 6.0 mph NE9.7 kmh NE 10.0 mph16.1 kmh 30.40 in1029.5 mb 0.00 in0.0 mm 0.00 in/hr0.0 mm/hr 0.00 in0.0 mm
09:30 AM 45.3°F7.4°C 33.9°F1.1°C 64% 8.0 mph NE12.9 kmh NE 10.0 mph16.1 kmh 30.40 in1029.5 mb 0.00 in0.0 mm 0.00 in/hr0.0 mm/hr 0.00 in0.0 mm
09:25 AM 45.7°F7.6°C 34.6°F1.4°C 65% 5.0 mph NE8.0 kmh NE 9.0 mph14.5 kmh 30.40 in1029.5 mb 0.00 in0.0 mm 0.00 in/hr0.0 mm/hr 0.00 in0.0 mm
09:20 AM 45.4°F7.4°C 34.7°F1.5°C 66% 5.0 mph NE8.0 kmh NE 6.0 mph9.7 kmh 30.40 in1029.5 mb 0.00 in0.0 mm 0.00 in/hr0.0 mm/hr 0.00 in0.0 mm
09:15 AM 44.6°F7.0°C 34.3°F1.3°C 67% 3.0 mph ENE4.8 kmh ENE 4.0 mph6.4 kmh 30.40 in1029.5 mb 0.00 in0.0 mm 0.00 in/hr0.0 mm/hr 0.00 in0.0 mm
09:10 AM 44.1°F6.7°C 34.2°F1.2°C 68% 2.0 mph ESE3.2 kmh ESE 4.0 mph6.4 kmh 30.40 in1029.5 mb 0.00 in0.0 mm 0.00 in/hr0.0 mm/hr 0.00 in0.0 mm
09:05 AM 43.7°F6.5°C 33.9°F1.1°C 68% 8.0 mph ENE12.9 kmh ENE 12.0 mph19.3 kmh 30.40 in1029.5 mb 0.00 in0.0 mm 0.00 in/hr0.0 mm/hr 0.00 in0.0 mm
09:00 AM 43.5°F6.4°C 34.0°F1.1°C 69% 5.0 mph SE8.0 kmh SE 10.0 mph16.1 kmh 30.40 in1029.5 mb 0.00 in0.0 mm 0.00 in/hr0.0 mm/hr 0.00 in0.0 mm
08:55 AM 43.4°F6.3°C 33.9°F1.1°C 69% 10.0 mph NNE16.1 kmh NNE 11.0 mph17.7 kmh 30.40 in1029.5 mb 0.00 in0.0 mm 0.00 in/hr0.0 mm/hr 0.00 in0.0 mm
08:50 AM 43.3°F6.3°C 34.2°F1.2°C 70% 10.0 mph N16.1 kmh N 13.0 mph20.9 kmh 30.40 in1029.5 mb 0.00 in0.0 mm 0.00 in/hr0.0 mm/hr 0.00 in0.0 mm
08:45 AM 43.1°F6.2°C 34.0°F1.1°C 70% 11.0 mph NE17.7 kmh NE 11.0 mph17.7 kmh 30.40 in1029.5 mb 0.00 in0.0 mm 0.00 in/hr0.0 mm/hr 0.00 in0.0 mm
08:40 AM 42.8°F6.0°C 33.7°F0.9°C 70% 3.0 mph N4.8 kmh N 9.0 mph14.5 kmh 30.40 in1029.5 mb 0.00 in0.0 mm 0.00 in/hr0.0 mm/hr 0.00 in0.0 mm
08:35 AM 42.8°F6.0°C 33.7°F0.9°C 70% 12.0 mph NE19.3 kmh NE 12.0 mph19.3 kmh 30.40 in1029.5 mb 0.00 in0.0 mm 0.00 in/hr0.0 mm/hr 0.00 in0.0 mm
08:30 AM 42.7°F5.9°C 34.0°F1.1°C 71% 7.0 mph NE11.3 kmh NE 7.0 mph11.3 kmh 30.39 in1029.1 mb 0.00 in0.0 mm 0.00 in/hr0.0 mm/hr 0.00 in0.0 mm
08:25 AM 42.4°F5.8°C 34.0°F1.1°C 72% 2.0 mph E3.2 kmh E 8.0 mph12.9 kmh 30.39 in1029.1 mb 0.00 in0.0 mm 0.00 in/hr0.0 mm/hr 0.00 in0.0 mm
08:20 AM 42.3°F5.7°C 34.3°F1.3°C 73% 5.0 mph NNW8.0 kmh NNW 7.0 mph11.3 kmh 30.39 in1029.1 mb 0.00 in0.0 mm 0.00 in/hr0.0 mm/hr 0.00 in0.0 mm
08:15 AM 42.0°F5.6°C 34.0°F1.1°C 73% 4.0 mph ENE6.4 kmh ENE 10.0 mph16.1 kmh 30.39 in1029.1 mb 0.00 in0.0 mm 0.00 in/hr0.0 mm/hr 0.00 in0.0 mm
08:10 AM 41.8°F5.4°C 34.1°F1.2°C 74% 5.0 mph ENE8.0 kmh ENE 5.0 mph8.0 kmh 30.39 in1029.1 mb 0.00 in0.0 mm 0.00 in/hr0.0 mm/hr 0.00 in0.0 mm
08:05 AM 41.4°F5.2°C 33.8°F1.0°C 74% 9.0 mph NE14.5 kmh NE 11.0 mph17.7 kmh 30.39 in1029.1 mb 0.00 in0.0 mm 0.00 in/hr0.0 mm/hr 0.00 in0.0 mm
08:00 AM 41.1°F5.1°C 33.8°F1.0°C 75% 3.0 mph NW4.8 kmh NW 4.0 mph6.4 kmh 30.39 in1029.1 mb 0.00 in0.0 mm 0.00 in/hr0.0 mm/hr 0.00 in0.0 mm
07:55 AM 40.9°F4.9°C 33.9°F1.1°C 76% 2.0 mph NE3.2 kmh NE 4.0 mph6.4 kmh 30.39 in1029.1 mb 0.00 in0.0 mm 0.00 in/hr0.0 mm/hr 0.00 in0.0 mm
07:50 AM 40.6°F4.8°C 33.6°F0.9°C 76% 2.0 mph NE3.2 kmh NE 2.0 mph3.2 kmh 30.39 in1029.1 mb 0.00 in0.0 mm 0.00 in/hr0.0 mm/hr 0.00 in0.0 mm
07:45 AM 40.3°F4.6°C 33.7°F0.9°C 77% 3.0 mph NNE4.8 kmh NNE 4.0 mph6.4 kmh 30.38 in1028.8 mb 0.00 in0.0 mm 0.00 in/hr0.0 mm/hr 0.00 in0.0 mm
07:40 AM 40.1°F4.5°C 33.8°F1.0°C 78% 8.0 mph N12.9 kmh N 8.0 mph12.9 kmh 30.38 in1028.8 mb 0.00 in0.0 mm 0.00 in/hr0.0 mm/hr 0.00 in0.0 mm
07:35 AM 40.0°F4.4°C 33.7°F0.9°C 78% 4.0 mph N6.4 kmh N 5.0 mph8.0 kmh 30.38 in1028.8 mb 0.00 in0.0 mm 0.00 in/hr0.0 mm/hr 0.00 in0.0 mm
07:30 AM 39.9°F4.4°C 33.6°F0.9°C 78% 3.0 mph N4.8 kmh N 5.0 mph8.0 kmh 30.38 in1028.8 mb 0.00 in0.0 mm 0.00 in/hr0.0 mm/hr 0.00 in0.0 mm
07:25 AM 39.8°F4.3°C 33.5°F0.8°C 78% 4.0 mph NNW6.4 kmh NNW 5.0 mph8.0 kmh 30.38 in1028.8 mb 0.00 in0.0 mm 0.00 in/hr0.0 mm/hr 0.00 in0.0 mm
07:20 AM 39.8°F4.3°C 33.8°F1.0°C 79% 6.0 mph NE9.7 kmh NE 9.0 mph14.5 kmh 30.38 in1028.8 mb 0.00 in0.0 mm 0.00 in/hr0.0 mm/hr 0.00 in0.0 mm
07:15 AM 39.8°F4.3°C 33.5°F0.8°C 78% 3.0 mph NNE4.8 kmh NNE 8.0 mph12.9 kmh 30.38 in1028.8 mb 0.00 in0.0 mm 0.00 in/hr0.0 mm/hr 0.00 in0.0 mm
07:10 AM 39.9°F4.4°C 33.6°F0.9°C 78% 2.0 mph N3.2 kmh N 6.0 mph9.7 kmh 30.37 in1028.4 mb 0.00 in0.0 mm 0.00 in/hr0.0 mm/hr 0.00 in0.0 mm
07:05 AM 40.1°F4.5°C 33.8°F1.0°C 78% 3.0 mph NE4.8 kmh NE 4.0 mph6.4 kmh 30.37 in1028.4 mb 0.00 in0.0 mm 0.00 in/hr0.0 mm/hr 0.00 in0.0 mm
07:00 AM 40.1°F4.5°C 33.8°F1.0°C 78% 4.0 mph N6.4 kmh N 5.0 mph8.0 kmh 30.37 in1028.4 mb 0.00 in0.0 mm 0.00 in/hr0.0 mm/hr 0.00 in0.0 mm
06:55 AM 40.2°F4.6°C 33.9°F1.1°C 78% 2.0 mph N3.2 kmh N 5.0 mph8.0 kmh 30.37 in1028.4 mb 0.00 in0.0 mm 0.00 in/hr0.0 mm/hr 0.00 in0.0 mm
06:50 AM 40.2°F4.6°C 33.9°F1.1°C 78% 6.0 mph ENE9.7 kmh ENE 6.0 mph9.7 kmh 30.37 in1028.4 mb 0.00 in0.0 mm 0.00 in/hr0.0 mm/hr 0.00 in0.0 mm
06:45 AM 40.4°F4.7°C 34.1°F1.2°C 78% Calm Calm 1.0 mph1.6 kmh 30.37 in1028.4 mb 0.00 in0.0 mm 0.00 in/hr0.0 mm/hr 0.00 in0.0 mm
06:40 AM 40.5°F4.7°C 34.2°F1.2°C 78% 2.0 mph NE3.2 kmh NE 5.0 mph8.0 kmh 30.37 in1028.4 mb 0.00 in0.0 mm 0.00 in/hr0.0 mm/hr 0.00 in0.0 mm
06:35 AM 40.6°F4.8°C 34.0°F1.1°C 77% 4.0 mph NE6.4 kmh NE 7.0 mph11.3 kmh 30.37 in1028.4 mb 0.00 in0.0 mm 0.00 in/hr0.0 mm/hr 0.00 in0.0 mm
06:30 AM 40.7°F4.8°C 34.1°F1.2°C 77% 1.0 mph N1.6 kmh N 3.0 mph4.8 kmh 30.37 in1028.4 mb 0.00 in0.0 mm 0.00 in/hr0.0 mm/hr 0.00 in0.0 mm
06:25 AM 40.8°F4.9°C 34.2°F1.2°C 77% 10.0 mph NE16.1 kmh NE 10.0 mph16.1 kmh 30.37 in1028.4 mb 0.00 in0.0 mm 0.00 in/hr0.0 mm/hr 0.00 in0.0 mm
06:20 AM 40.9°F4.9°C 33.9°F1.1°C 76% 2.0 mph NE3.2 kmh NE 5.0 mph8.0 kmh 30.36 in1028.1 mb 0.00 in0.0 mm 0.00 in/hr0.0 mm/hr 0.00 in0.0 mm
06:15 AM 41.1°F5.1°C 34.1°F1.2°C 76% 1.0 mph NE1.6 kmh NE 4.0 mph6.4 kmh 30.36 in1028.1 mb 0.00 in0.0 mm 0.00 in/hr0.0 mm/hr 0.00 in0.0 mm
06:10 AM 41.3°F5.2°C 34.3°F1.3°C 76% 4.0 mph E6.4 kmh E 7.0 mph11.3 kmh 30.36 in1028.1 mb 0.00 in0.0 mm 0.00 in/hr0.0 mm/hr 0.00 in0.0 mm
06:05 AM 41.4°F5.2°C 34.1°F1.2°C 75% Calm Calm 3.0 mph4.8 kmh 30.36 in1028.1 mb 0.00 in0.0 mm 0.00 in/hr0.0 mm/hr 0.00 in0.0 mm
06:00 AM 41.5°F5.3°C 34.2°F1.2°C 75% 4.0 mph NE6.4 kmh NE 7.0 mph11.3 kmh 30.36 in1028.1 mb 0.00 in0.0 mm 0.00 in/hr0.0 mm/hr 0.00 in0.0 mm
05:55 AM 41.7°F5.4°C 34.0°F1.1°C 74% 1.0 mph NNE1.6 kmh NNE 3.0 mph4.8 kmh 30.35 in1027.8 mb 0.00 in0.0 mm 0.00 in/hr0.0 mm/hr 0.00 in0.0 mm
05:50 AM 41.9°F5.5°C 33.9°F1.1°C 73% 3.0 mph NNE4.8 kmh NNE 4.0 mph6.4 kmh 30.35 in1027.8 mb 0.00 in0.0 mm 0.00 in/hr0.0 mm/hr 0.00 in0.0 mm
05:45 AM 42.1°F5.6°C 34.1°F1.2°C 73% 1.0 mph NE1.6 kmh NE 6.0 mph9.7 kmh 30.35 in1027.8 mb 0.00 in0.0 mm 0.00 in/hr0.0 mm/hr 0.00 in0.0 mm
05:40 AM 42.2°F5.7°C 34.2°F1.2°C 73% 5.0 mph NE8.0 kmh NE 12.0 mph19.3 kmh 30.35 in1027.8 mb 0.00 in0.0 mm 0.00 in/hr0.0 mm/hr 0.00 in0.0 mm
05:35 AM 42.3°F5.7°C 33.9°F1.1°C 72% 12.0 mph NE19.3 kmh NE 12.0 mph19.3 kmh 30.35 in1027.8 mb 0.00 in0.0 mm 0.00 in/hr0.0 mm/hr 0.00 in0.0 mm
05:30 AM 42.4°F5.8°C 34.0°F1.1°C 72% 6.0 mph NE9.7 kmh NE 12.0 mph19.3 kmh 30.35 in1027.8 mb 0.00 in0.0 mm 0.00 in/hr0.0 mm/hr 0.00 in0.0 mm
05:25 AM 42.5°F5.8°C 34.1°F1.2°C 72% 6.0 mph N9.7 kmh N 6.0 mph9.7 kmh 30.35 in1027.8 mb 0.00 in0.0 mm 0.00 in/hr0.0 mm/hr 0.00 in0.0 mm
05:20 AM 42.7°F5.9°C 34.3°F1.3°C 72% 1.0 mph ENE1.6 kmh ENE 2.0 mph3.2 kmh 30.35 in1027.8 mb 0.00 in0.0 mm 0.00 in/hr0.0 mm/hr 0.00 in0.0 mm
05:15 AM 42.8°F6.0°C 34.4°F1.3°C 72% 5.0 mph NNE8.0 kmh NNE 9.0 mph14.5 kmh 30.35 in1027.8 mb 0.00 in0.0 mm 0.00 in/hr0.0 mm/hr 0.00 in0.0 mm
05:10 AM 42.9°F6.1°C 34.2°F1.2°C 71% 1.0 mph NE1.6 kmh NE 1.0 mph1.6 kmh 30.35 in1027.8 mb 0.00 in0.0 mm 0.00 in/hr0.0 mm/hr 0.00 in0.0 mm
05:05 AM 43.1°F6.2°C 34.4°F1.3°C 71% 4.0 mph NE6.4 kmh NE 9.0 mph14.5 kmh 30.35 in1027.8 mb 0.00 in0.0 mm 0.00 in/hr0.0 mm/hr 0.00 in0.0 mm
05:00 AM 43.2°F6.2°C 34.5°F1.4°C 71% 7.0 mph NE11.3 kmh NE 13.0 mph20.9 kmh 30.35 in1027.8 mb 0.00 in0.0 mm 0.00 in/hr0.0 mm/hr 0.00 in0.0 mm
04:55 AM 43.3°F6.3°C 34.5°F1.4°C 71% 5.0 mph ENE8.0 kmh ENE 8.0 mph12.9 kmh 30.35 in1027.8 mb 0.00 in0.0 mm 0.00 in/hr0.0 mm/hr 0.00 in0.0 mm
04:50 AM 43.4°F6.3°C 34.3°F1.3°C 70% 4.0 mph NE6.4 kmh NE 6.0 mph9.7 kmh 30.35 in1027.8 mb 0.00 in0.0 mm 0.00 in/hr0.0 mm/hr 0.00 in0.0 mm
04:45 AM 43.6°F6.4°C 34.8°F1.6°C 71% Calm Calm 2.0 mph3.2 kmh 30.35 in1027.8 mb 0.00 in0.0 mm 0.00 in/hr0.0 mm/hr 0.00 in0.0 mm
04:40 AM 43.6°F6.4°C 34.5°F1.4°C 70% 5.0 mph E8.0 kmh E 8.0 mph12.9 kmh 30.35 in1027.8 mb 0.00 in0.0 mm 0.00 in/hr0.0 mm/hr 0.00 in0.0 mm
04:35 AM 43.8°F6.6°C 34.7°F1.5°C 70% 3.0 mph ENE4.8 kmh ENE 5.0 mph8.0 kmh 30.35 in1027.8 mb 0.00 in0.0 mm 0.00 in/hr0.0 mm/hr 0.00 in0.0 mm
04:30 AM 44.0°F6.7°C 34.9°F1.6°C 70% 1.0 mph NE1.6 kmh NE 4.0 mph6.4 kmh 30.35 in1027.8 mb 0.00 in0.0 mm 0.00 in/hr0.0 mm/hr 0.00 in0.0 mm
04:25 AM 44.1°F6.7°C 35.0°F1.7°C 70% 3.0 mph NE4.8 kmh NE 4.0 mph6.4 kmh 30.35 in1027.8 mb 0.00 in0.0 mm 0.00 in/hr0.0 mm/hr 0.00 in0.0 mm
04:20 AM 44.3°F6.8°C 34.8°F1.6°C 69% Calm Calm 2.0 mph3.2 kmh 30.34 in1027.4 mb 0.00 in0.0 mm 0.00 in/hr0.0 mm/hr 0.00 in0.0 mm
04:15 AM 44.4°F6.9°C 34.9°F1.6°C 69% 3.0 mph N4.8 kmh N 5.0 mph8.0 kmh 30.34 in1027.4 mb 0.00 in0.0 mm 0.00 in/hr0.0 mm/hr 0.00 in0.0 mm
04:10 AM 44.5°F6.9°C 34.6°F1.4°C 68% 3.0 mph ENE4.8 kmh ENE 4.0 mph6.4 kmh 30.35 in1027.8 mb 0.00 in0.0 mm 0.00 in/hr0.0 mm/hr 0.00 in0.0 mm
04:05 AM 44.6°F7.0°C 34.7°F1.5°C 68% 4.0 mph NNE6.4 kmh NNE 9.0 mph14.5 kmh 30.35 in1027.8 mb 0.00 in0.0 mm 0.00 in/hr0.0 mm/hr 0.00 in0.0 mm
04:00 AM 44.8°F7.1°C 34.9°F1.6°C 68% 4.0 mph NNE6.4 kmh NNE 4.0 mph6.4 kmh 30.35 in1027.8 mb 0.00 in0.0 mm 0.00 in/hr0.0 mm/hr 0.00 in0.0 mm
03:55 AM 44.9°F7.2°C 34.6°F1.4°C 67% 3.0 mph NE4.8 kmh NE 5.0 mph8.0 kmh 30.35 in1027.8 mb 0.00 in0.0 mm 0.00 in/hr0.0 mm/hr 0.00 in0.0 mm
03:50 AM 45.0°F7.2°C 34.7°F1.5°C 67% 3.0 mph NNE4.8 kmh NNE 3.0 mph4.8 kmh 30.35 in1027.8 mb 0.00 in0.0 mm 0.00 in/hr0.0 mm/hr 0.00 in0.0 mm
03:45 AM 45.1°F7.3°C 34.8°F1.6°C 67% 4.0 mph NE6.4 kmh NE 8.0 mph12.9 kmh 30.34 in1027.4 mb 0.00 in0.0 mm 0.00 in/hr0.0 mm/hr 0.00 in0.0 mm
03:40 AM 45.3°F7.4°C 35.0°F1.7°C 67% 2.0 mph N3.2 kmh N 2.0 mph3.2 kmh 30.35 in1027.8 mb 0.00 in0.0 mm 0.00 in/hr0.0 mm/hr 0.00 in0.0 mm
03:35 AM 45.5°F7.5°C 35.2°F1.8°C 67% 5.0 mph N8.0 kmh N 5.0 mph8.0 kmh 30.35 in1027.8 mb 0.00 in0.0 mm 0.00 in/hr0.0 mm/hr 0.00 in0.0 mm
03:30 AM 45.6°F7.6°C 34.9°F1.6°C 66% 4.0 mph NE6.4 kmh NE 6.0 mph9.7 kmh 30.35 in1027.8 mb 0.00 in0.0 mm 0.00 in/hr0.0 mm/hr 0.00 in0.0 mm
03:25 AM 45.7°F7.6°C 35.0°F1.7°C 66% 8.0 mph NE12.9 kmh NE 10.0 mph16.1 kmh 30.35 in1027.8 mb 0.00 in0.0 mm 0.00 in/hr0.0 mm/hr 0.00 in0.0 mm
03:20 AM 45.8°F7.7°C 35.1°F1.7°C 66% 2.0 mph N3.2 kmh N 7.0 mph11.3 kmh 30.35 in1027.8 mb 0.00 in0.0 mm 0.00 in/hr0.0 mm/hr 0.00 in0.0 mm
03:15 AM 46.0°F7.8°C 35.3°F1.8°C 66% 4.0 mph NNE6.4 kmh NNE 12.0 mph19.3 kmh 30.35 in1027.8 mb 0.00 in0.0 mm 0.00 in/hr0.0 mm/hr 0.00 in0.0 mm
03:10 AM 46.1°F7.8°C 35.0°F1.7°C 65% 1.0 mph NE1.6 kmh NE 6.0 mph9.7 kmh 30.35 in1027.8 mb 0.00 in0.0 mm 0.00 in/hr0.0 mm/hr 0.00 in0.0 mm
03:05 AM 46.2°F7.9°C 35.1°F1.7°C 65% 5.0 mph N8.0 kmh N 9.0 mph14.5 kmh 30.35 in1027.8 mb 0.00 in0.0 mm 0.00 in/hr0.0 mm/hr 0.00 in0.0 mm
03:00 AM 46.2°F7.9°C 35.5°F1.9°C 66% 5.0 mph NE8.0 kmh NE 8.0 mph12.9 kmh 30.35 in1027.8 mb 0.00 in0.0 mm 0.00 in/hr0.0 mm/hr 0.00 in0.0 mm
02:55 AM 46.3°F7.9°C 35.6°F2.0°C 66% 3.0 mph NNE4.8 kmh NNE 6.0 mph9.7 kmh 30.35 in1027.8 mb 0.00 in0.0 mm 0.00 in/hr0.0 mm/hr 0.00 in0.0 mm
02:50 AM 46.4°F8.0°C 35.7°F2.1°C 66% 4.0 mph NNE6.4 kmh NNE 5.0 mph8.0 kmh 30.35 in1027.8 mb 0.00 in0.0 mm 0.00 in/hr0.0 mm/hr 0.00 in0.0 mm
02:45 AM 46.6°F8.1°C 35.9°F2.2°C 66% 4.0 mph N6.4 kmh N 7.0 mph11.3 kmh 30.35 in1027.8 mb 0.00 in0.0 mm 0.00 in/hr0.0 mm/hr 0.00 in0.0 mm
02:40 AM 46.7°F8.2°C 36.0°F2.2°C 66% 2.0 mph NE3.2 kmh NE 4.0 mph6.4 kmh 30.35 in1027.8 mb 0.00 in0.0 mm 0.00 in/hr0.0 mm/hr 0.00 in0.0 mm
02:35 AM 46.8°F8.2°C 36.1°F2.3°C 66% 5.0 mph NNE8.0 kmh NNE 5.0 mph8.0 kmh 30.35 in1027.8 mb 0.00 in0.0 mm 0.00 in/hr0.0 mm/hr 0.00 in0.0 mm
02:30 AM 46.9°F8.3°C 36.2°F2.3°C 66% 5.0 mph N8.0 kmh N 10.0 mph16.1 kmh 30.35 in1027.8 mb 0.00 in0.0 mm 0.00 in/hr0.0 mm/hr 0.00 in0.0 mm
02:25 AM 47.1°F8.4°C 36.3°F2.4°C 66% 1.0 mph N1.6 kmh N 5.0 mph8.0 kmh 30.35 in1027.8 mb 0.00 in0.0 mm 0.00 in/hr0.0 mm/hr 0.00 in0.0 mm
02:20 AM 47.2°F8.4°C 36.4°F2.4°C 66% 3.0 mph NNE4.8 kmh NNE 4.0 mph6.4 kmh 30.35 in1027.8 mb 0.00 in0.0 mm 0.00 in/hr0.0 mm/hr 0.00 in0.0 mm
02:15 AM 47.4°F8.6°C 36.2°F2.3°C 65% 2.0 mph NNE3.2 kmh NNE 7.0 mph11.3 kmh 30.35 in1027.8 mb 0.00 in0.0 mm 0.00 in/hr0.0 mm/hr 0.00 in0.0 mm
02:10 AM 47.5°F8.6°C 36.3°F2.4°C 65% 3.0 mph NE4.8 kmh NE 6.0 mph9.7 kmh 30.34 in1027.4 mb 0.00 in0.0 mm 0.00 in/hr0.0 mm/hr 0.00 in0.0 mm
02:05 AM 47.7°F8.7°C 36.5°F2.5°C 65% 4.0 mph NE6.4 kmh NE 5.0 mph8.0 kmh 30.34 in1027.4 mb 0.00 in0.0 mm 0.00 in/hr0.0 mm/hr 0.00 in0.0 mm
02:00 AM 47.8°F8.8°C 36.6°F2.6°C 65% 2.0 mph NNE3.2 kmh NNE 9.0 mph14.5 kmh 30.34 in1027.4 mb 0.00 in0.0 mm 0.00 in/hr0.0 mm/hr 0.00 in0.0 mm
01:55 AM 48.0°F8.9°C 36.8°F2.7°C 65% 3.0 mph ENE4.8 kmh ENE 5.0 mph8.0 kmh 30.34 in1027.4 mb 0.00 in0.0 mm 0.00 in/hr0.0 mm/hr 0.00 in0.0 mm
01:50 AM 48.2°F9.0°C 36.6°F2.6°C 64% 2.0 mph NNE3.2 kmh NNE 6.0 mph9.7 kmh 30.34 in1027.4 mb 0.00 in0.0 mm 0.00 in/hr0.0 mm/hr 0.00 in0.0 mm
01:45 AM 48.4°F9.1°C 36.8°F2.7°C 64% 6.0 mph N9.7 kmh N 11.0 mph17.7 kmh 30.34 in1027.4 mb 0.00 in0.0 mm 0.00 in/hr0.0 mm/hr 0.00 in0.0 mm
01:40 AM 48.4°F9.1°C 36.4°F2.4°C 63% 3.0 mph NW4.8 kmh NW 6.0 mph9.7 kmh 30.34 in1027.4 mb 0.00 in0.0 mm 0.00 in/hr0.0 mm/hr 0.00 in0.0 mm
01:35 AM 48.5°F9.2°C 36.9°F2.7°C 64% 2.0 mph N3.2 kmh N 3.0 mph4.8 kmh 30.34 in1027.4 mb 0.00 in0.0 mm 0.00 in/hr0.0 mm/hr 0.00 in0.0 mm
01:30 AM 48.7°F9.3°C 36.7°F2.6°C 63% 2.0 mph N3.2 kmh N 8.0 mph12.9 kmh 30.34 in1027.4 mb 0.00 in0.0 mm 0.00 in/hr0.0 mm/hr 0.00 in0.0 mm
01:25 AM 49.1°F9.5°C 37.1°F2.8°C 63% 4.0 mph NE6.4 kmh NE 5.0 mph8.0 kmh 30.34 in1027.4 mb 0.00 in0.0 mm 0.00 in/hr0.0 mm/hr 0.00 in0.0 mm
01:20 AM 49.3°F9.6°C 36.9°F2.7°C 62% 11.0 mph NE17.7 kmh NE 11.0 mph17.7 kmh 30.34 in1027.4 mb 0.00 in0.0 mm 0.00 in/hr0.0 mm/hr 0.00 in0.0 mm
01:15 AM 49.4°F9.7°C 36.9°F2.7°C 62% 5.0 mph N8.0 kmh N 11.0 mph17.7 kmh 30.34 in1027.4 mb 0.00 in0.0 mm 0.00 in/hr0.0 mm/hr 0.00 in0.0 mm
01:10 AM 49.6°F9.8°C 36.7°F2.6°C 61% 5.0 mph NE8.0 kmh NE 7.0 mph11.3 kmh 30.34 in1027.4 mb 0.00 in0.0 mm 0.00 in/hr0.0 mm/hr 0.00 in0.0 mm
01:05 AM 49.7°F9.8°C 36.8°F2.7°C 61% 6.0 mph N9.7 kmh N 10.0 mph16.1 kmh 30.34 in1027.4 mb 0.00 in0.0 mm 0.00 in/hr0.0 mm/hr 0.00 in0.0 mm
01:00 AM 49.7°F9.8°C 36.8°F2.7°C 61% 5.0 mph NNE8.0 kmh NNE 6.0 mph9.7 kmh 30.34 in1027.4 mb 0.00 in0.0 mm 0.00 in/hr0.0 mm/hr 0.00 in0.0 mm
12:55 AM 49.8°F9.9°C 37.3°F2.9°C 62% 5.0 mph N8.0 kmh N 11.0 mph17.7 kmh 30.34 in1027.4 mb 0.00 in0.0 mm 0.00 in/hr0.0 mm/hr 0.00 in0.0 mm
12:50 AM 49.9°F9.9°C 37.4°F3.0°C 62% 4.0 mph NNE6.4 kmh NNE 10.0 mph16.1 kmh 30.34 in1027.4 mb 0.00 in0.0 mm 0.00 in/hr0.0 mm/hr 0.00 in0.0 mm
12:45 AM 50.1°F10.1°C 37.6°F3.1°C 62% 4.0 mph NNE6.4 kmh NNE 7.0 mph11.3 kmh 30.34 in1027.4 mb 0.00 in0.0 mm 0.00 in/hr0.0 mm/hr 0.00 in0.0 mm
12:40 AM 50.1°F10.1°C 37.6°F3.1°C 62% 9.0 mph N14.5 kmh N 9.0 mph14.5 kmh 30.34 in1027.4 mb 0.00 in0.0 mm 0.00 in/hr0.0 mm/hr 0.00 in0.0 mm
12:35 AM 50.2°F10.1°C 37.3°F2.9°C 61% 7.0 mph NE11.3 kmh NE 7.0 mph11.3 kmh 30.34 in1027.4 mb 0.00 in0.0 mm 0.00 in/hr0.0 mm/hr 0.00 in0.0 mm
12:30 AM 50.3°F10.2°C 37.4°F3.0°C 61% 7.0 mph NE11.3 kmh NE 10.0 mph16.1 kmh 30.34 in1027.4 mb 0.00 in0.0 mm 0.00 in/hr0.0 mm/hr 0.00 in0.0 mm
12:25 AM 50.4°F10.2°C 37.5°F3.1°C 61% 5.0 mph NNW8.0 kmh NNW 12.0 mph19.3 kmh 30.34 in1027.4 mb 0.00 in0.0 mm 0.00 in/hr0.0 mm/hr 0.00 in0.0 mm
12:20 AM 50.5°F10.3°C 37.6°F3.1°C 61% 5.0 mph N8.0 kmh N 9.0 mph14.5 kmh 30.34 in1027.4 mb 0.00 in0.0 mm 0.00 in/hr0.0 mm/hr 0.00 in0.0 mm
12:15 AM 50.6°F10.3°C 37.7°F3.2°C 61% Calm Calm 3.0 mph4.8 kmh 30.34 in1027.4 mb 0.00 in0.0 mm 0.00 in/hr0.0 mm/hr 0.00 in0.0 mm
12:10 AM 50.8°F10.4°C 37.9°F3.3°C 61% 2.0 mph ENE3.2 kmh ENE 7.0 mph11.3 kmh 30.34 in1027.4 mb 0.00 in0.0 mm 0.00 in/hr0.0 mm/hr 0.00 in0.0 mm
12:05 AM 50.9°F10.5°C 38.0°F3.3°C 61% 7.0 mph NE11.3 kmh NE 9.0 mph14.5 kmh 30.34 in1027.4 mb 0.00 in0.0 mm 0.00 in/hr0.0 mm/hr 0.00 in0.0 mm
12:00 AM 51.0°F10.6°C 38.0°F3.3°C 61% 9.0 mph E14.5 kmh E 10.0 mph16.1 kmh 30.34 in1027.4 mb 0.00 in0.0 mm 0.00 in/hr0.0 mm/hr 0.00 in0.0 mm